Strona główna
METAR-TAF:

METAR-TAF

Lotnisko :

Heiðrún

Heidrun, Norwegia

Szerokość geograficzna: 65-19-30N, Długość geograficzna: 007-19-36E, wysokość: 0 m

Aktualna obserwacja pogody

Raport powstał 39 minut temu, godzina 02:50 UTC
Wiatr 10 kt od północny wschód
Temperatura 1°C
Wilgotność 51%
Ciśnienie 989 hPa
Widzialność 10 km lub więcej
Zachmurzenie całkowite na wysokości 4000 ft

METAR: ENHE 240250Z 05010KT 9999 OVC040 01/M08 Q0989 W///S4

czas: 04:29 (03:29 UTC)

Prognoza

Raport powstał 1 godzina i 29 minut temu, godzina 02:00 UTC
Prognoza ważna od 24 godzina 03 UTC do 24 godzina 12 UTC
Wiatr 12 kt od północno-północny wschód
Widzialność 10 km lub więcej
Przerywane chmury na wysokości 3000 ft

TAF: ENHE 240200Z 2403/2412 03012KT 9999 BKN030

Obserwacja i prognoza pogody dla ponad 4000 lotnisk (raport METAR i TAF).

Dostępne stacje oznaczono żółtymi i czerwonymi punktami na mapie.

Najedź kursorem aby zobaczyć nazwę stacji.

Kliknij aby zobaczyć obserwacje i prognozy pogody.

Aby zmienić mapę: kliknij na zielony przycisk z czarnym krzyżykiem, aby powiększyć; na zielony przycisk z myślnikiem, aby pomniejszyć; na zielone strzałki, aby przejść do map sąsiednich.


METAR-TAF: